Time;durP1;ratioP1;P1;durP2;ratioP2;P2;SDS_P1;SDS_P2;PMS_P1;PMS_P2;Temp;Humidity;BMP_temperature;BMP_pressure;BME280_temperature;BME280_humidity;BME280_pressure;Samples;Min_cycle;Max_cycle;Signal;HPM_P1;HPM_P2
2022/11/01 00:00:18;;;;;;;;;;;13.30;66.50;;;8.99;100.00;95657.88;4969411;28;19909;-50
2022/11/01 00:02:44;;;;;;;;;;;13.40;66.60;;;9.01;100.00;95652.31;4973641;28;19917;-52
2022/11/01 00:05:11;;;;;;;;;;;13.40;66.60;;;9.02;100.00;95651.25;4974980;28;19923;-52
2022/11/01 00:07:42;;;;;;;;;;;13.40;66.40;;;9.04;100.00;95654.47;4973608;28;20000;-54
2022/11/01 00:10:08;;;;;;;;;;;13.50;66.50;;;9.07;100.00;95651.31;4984979;28;19917;-53
2022/11/01 00:12:49;;;;;;;;;;;13.50;66.50;;;9.09;100.00;95648.38;4993056;28;19968;-55
2022/11/01 00:15:18;;;;;;;;;;;13.50;66.50;;;9.12;100.00;95653.19;4990046;28;21014;-51
2022/11/01 00:17:43;;;;;;;;;;;13.50;66.50;;;9.18;100.00;95650.34;4949706;28;20044;-50
2022/11/01 00:20:10;;;;;;;;;;;13.60;66.70;;;9.26;100.00;95636.56;4973250;28;20001;-54
2022/11/01 00:22:48;;;;;;;;;;;13.60;66.70;;;9.27;100.00;95634.72;4987220;28;19909;-54
2022/11/01 00:25:16;;;;;;;;;;;13.60;66.70;;;9.30;100.00;95639.50;4992374;28;19964;-50
2022/11/01 00:27:42;;;;;;;;;;;13.70;66.80;;;9.34;100.00;95635.31;4991559;28;19909;-48
2022/11/01 00:30:13;;;;;;;;;;;13.70;66.80;;;9.38;100.00;95641.72;4992632;28;19909;-52
2022/11/01 00:32:39;;;;;;;;;;;13.70;66.80;;;9.41;100.00;95630.56;4991665;28;20387;-48
2022/11/01 00:35:11;;;;;;;;;;;13.80;67.00;;;9.44;100.00;95640.69;4989614;28;19913;-52
2022/11/01 00:37:39;;;;;;;;;;;13.80;66.90;;;9.48;100.00;95649.75;4992379;28;19988;-52
2022/11/01 00:40:06;;;;;;;;;;;13.80;66.90;;;9.53;100.00;95653.50;4982721;28;19909;-49
2022/11/01 00:42:34;;;;;;;;;;;13.90;66.90;;;9.55;100.00;95646.88;4972855;28;19997;-56
2022/11/01 00:45:00;;;;;;;;;;;13.90;66.90;;;9.56;100.00;95643.16;4973345;28;20688;-52
2022/11/01 00:47:38;;;;;;;;;;;13.90;66.80;;;9.58;100.00;95642.91;4991601;28;19910;-54
2022/11/01 00:50:07;;;;;;;;;;;14.00;66.90;;;9.62;100.00;95642.16;4973239;28;19914;-53
2022/11/01 00:52:39;;;;;;;;;;;14.00;66.90;;;9.66;100.00;95640.56;4983621;28;19956;-54
2022/11/01 00:55:11;;;;;;;;;;;14.00;67.00;;;9.72;100.00;95641.41;4972247;28;19986;-51
2022/11/01 00:57:43;;;;;;;;;;;14.10;67.00;;;9.77;100.00;95648.59;4979519;28;19943;-56
2022/11/01 01:00:12;;;;;;;;;;;14.10;67.00;;;9.78;100.00;95653.69;4975340;28;20004;-55
2022/11/01 01:02:38;;;;;;;;;;;14.10;66.90;;;9.79;100.00;95671.22;4990922;28;19916;-50
2022/11/01 01:05:12;;;;;;;;;;;14.20;67.00;;;9.78;100.00;95666.97;4978743;28;20360;-56
2022/11/01 01:07:44;;;;;;;;;;;14.20;66.90;;;9.75;100.00;95667.50;4979629;28;19910;-56
2022/11/01 01:10:16;;;;;;;;;;;14.20;66.90;;;9.68;100.00;95664.22;4990668;28;19917;-56
2022/11/01 01:12:45;;;;;;;;;;;14.20;66.90;;;9.57;100.00;95667.91;4974702;28;20333;-54
2022/11/01 01:15:11;;;;;;;;;;;14.10;66.70;;;9.58;100.00;95666.84;4990242;28;20016;-55
2022/11/01 01:17:40;;;;;;;;;;;14.10;66.70;;;9.59;100.00;95660.44;4958534;28;19916;-55
2022/11/01 01:20:07;;;;;;;;;;;14.10;66.70;;;9.56;100.00;95661.78;4991391;28;20341;-55
2022/11/01 01:22:42;;;;;;;;;;;14.10;66.70;;;9.52;100.00;95658.00;4963267;28;20008;-52
2022/11/01 01:25:21;;;;;;;;;;;14.00;66.60;;;9.48;100.00;95656.94;4971486;28;19913;-53
2022/11/01 01:27:54;;;;;;;;;;;13.90;66.70;;;9.46;100.00;95659.84;4980555;28;19909;-52
2022/11/01 01:30:20;;;;;;;;;;;13.90;66.70;;;9.44;100.00;95658.50;4974710;28;20425;-53
2022/11/01 01:32:46;;;;;;;;;;;13.90;66.80;;;9.42;100.00;95653.44;4978241;28;19914;-50
2022/11/01 01:35:14;;;;;;;;;;;13.90;66.90;;;9.35;100.00;95652.06;4970323;28;19919;-55
2022/11/01 01:37:46;;;;;;;;;;;13.80;66.80;;;9.33;100.00;95654.16;4973588;28;20590;-54
2022/11/01 01:40:12;;;;;;;;;;;13.80;66.90;;;9.35;100.00;95646.75;4958384;28;19910;-53
2022/11/01 01:42:41;;;;;;;;;;;13.80;67.00;;;9.32;100.00;95648.03;4938860;28;20411;-53
2022/11/01 01:45:39;;;;;;;;;;;13.80;67.10;;;9.31;100.00;95640.31;4956839;28;19924;-52
2022/11/01 01:48:26;;;;;;;;;;;13.70;67.20;;;9.35;100.00;95654.72;4958439;28;19996;-54
2022/11/01 01:51:04;;;;;;;;;;;13.70;67.20;;;9.38;100.00;95641.72;4988298;28;20375;-49
2022/11/01 01:53:43;;;;;;;;;;;13.70;67.30;;;9.42;100.00;95648.13;4973765;28;20008;-52
2022/11/01 01:56:19;;;;;;;;;;;13.70;67.40;;;9.43;100.00;95651.56;4973690;28;19963;-55
2022/11/01 01:59:13;;;;;;;;;;;13.80;67.50;;;9.47;100.00;95650.03;4988077;28;19909;-53
2022/11/01 02:01:40;;;;;;;;;;;13.80;67.60;;;9.49;100.00;95648.72;4971841;28;19917;-51
2022/11/01 02:04:48;;;;;;;;;;;13.80;67.60;;;9.50;100.00;95647.66;4975800;28;20009;-50
2022/11/01 02:07:14;;;;;;;;;;;13.80;67.60;;;9.50;100.00;95642.34;4955030;28;20005;-52
2022/11/01 02:09:43;;;;;;;;;;;13.80;68.40;;;9.56;100.00;95650.31;4978978;28;20603;-55
2022/11/01 02:12:11;;;;;;;;;;;13.90;67.70;;;9.58;100.00;95650.88;4973829;28;19917;-55
2022/11/01 02:14:41;;;;;;;;;;;13.90;67.70;;;9.60;100.00;95656.75;4979499;28;19917;-50
2022/11/01 02:17:28;;;;;;;;;;;13.90;67.70;;;9.61;100.00;95653.81;4973338;28;19916;-52
2022/11/01 02:20:49;;;;;;;;;;;14.00;67.70;;;9.66;100.00;95666.38;4989869;28;20024;-52
2022/11/01 02:23:34;;;;;;;;;;;14.00;67.70;;;9.65;100.00;95667.41;4953382;28;19949;-53
2022/11/01 02:26:50;;;;;;;;;;;14.00;67.70;;;9.66;100.00;95667.16;4966365;28;20024;-54
2022/11/01 02:30:09;;;;;;;;;;;14.10;67.80;;;9.70;100.00;95672.78;4971733;28;19917;-53
2022/11/01 02:33:28;;;;;;;;;;;14.00;67.80;;;9.79;100.00;95675.75;4983325;28;19916;-55
2022/11/01 02:36:21;;;;;;;;;;;14.10;67.90;;;9.81;100.00;95671.78;4978644;28;19935;-50
2022/11/01 02:38:59;;;;;;;;;;;14.10;67.90;;;9.83;100.00;95677.63;4950857;28;19918;-49
2022/11/01 02:41:46;;;;;;;;;;;14.20;68.00;;;9.83;100.00;95682.16;4977600;28;19917;-55
2022/11/01 02:44:22;;;;;;;;;;;14.20;67.90;;;9.89;100.00;95689.91;4977346;28;20281;-56
2022/11/01 02:49:45;;;;;;;;;;;14.30;67.90;;;9.92;100.00;95684.06;4980082;28;19976;-55
2022/11/01 02:52:24;;;;;;;;;;;14.30;67.80;;;9.90;100.00;95691.53;4976213;28;20015;-54
2022/11/01 02:55:25;;;;;;;;;;;14.30;67.70;;;9.92;100.00;95694.72;4976661;28;19917;-54
2022/11/01 02:57:52;;;;;;;;;;;14.30;67.80;;;9.92;100.00;95692.06;4979157;28;20000;-49
2022/11/01 03:00:29;;;;;;;;;;;14.40;67.80;;;9.94;100.00;95697.13;4994283;28;19967;-51
2022/11/01 03:03:20;;;;;;;;;;;14.40;67.80;;;9.92;100.00;95686.72;4992789;28;19917;-50
2022/11/01 03:05:57;;;;;;;;;;;14.40;67.70;;;9.91;100.00;95690.47;4977010;28;19909;-54
2022/11/01 03:08:39;;;;;;;;;;;14.40;67.70;;;9.90;100.00;95715.47;4981659;28;19910;-51
2022/11/01 03:11:54;;;;;;;;;;;14.40;67.70;;;9.93;100.00;95722.94;4987207;28;20354;-49
2022/11/01 03:15:06;;;;;;;;;;;14.40;67.70;;;9.95;100.00;95728.00;5052334;22;19920;-48
2022/11/01 03:18:03;;;;;;;;;;;14.40;67.80;;;9.99;100.00;95730.94;5026315;28;19916;-52
2022/11/01 03:20:53;;;;;;;;;;;14.50;68.00;;;10.02;100.00;95731.22;5019279;28;19909;-49
2022/11/01 03:24:07;;;;;;;;;;;14.50;68.00;;;10.05;100.00;95740.56;5045081;28;19912;-50
2022/11/01 03:26:40;;;;;;;;;;;14.50;67.90;;;10.03;100.00;95754.13;5011242;28;19988;-52
2022/11/01 03:29:20;;;;;;;;;;;14.50;67.90;;;10.03;100.00;95753.31;5010969;28;20282;-49
2022/11/01 03:31:54;;;;;;;;;;;14.50;67.90;;;10.10;100.00;95756.56;4995737;28;20383;-53
2022/11/01 03:34:22;;;;;;;;;;;14.60;68.00;;;10.15;100.00;95767.25;4995029;28;20443;-48
2022/11/01 03:37:08;;;;;;;;;;;14.60;68.00;;;10.18;100.00;95762.22;4979560;28;19913;-52
2022/11/01 03:39:49;;;;;;;;;;;14.60;68.10;;;10.22;100.00;95759.06;5011485;28;19931;-48
2022/11/01 03:42:21;;;;;;;;;;;14.60;68.10;;;10.23;100.00;95758.78;4996211;28;20008;-52
2022/11/01 03:44:56;;;;;;;;;;;14.70;68.10;;;10.28;100.00;95760.69;4994787;28;19913;-52
2022/11/01 03:47:25;;;;;;;;;;;14.70;68.10;;;10.32;100.00;95775.91;4980071;28;19921;-50
2022/11/01 03:50:20;;;;;;;;;;;14.80;68.10;;;10.35;100.00;95783.38;4998858;28;20003;-52
2022/11/01 03:52:49;;;;;;;;;;;14.80;68.10;;;10.38;100.00;95777.53;5018067;28;19920;-50
2022/11/01 03:55:17;;;;;;;;;;;14.80;68.10;;;10.41;100.00;95779.69;5014811;28;19919;-49
2022/11/01 03:57:45;;;;;;;;;;;14.80;68.10;;;10.42;100.00;95772.50;5021678;28;19909;-48
2022/11/01 04:00:28;;;;;;;;;;;14.90;68.10;;;10.38;100.00;95780.19;5032467;28;19913;-49
2022/11/01 04:02:56;;;;;;;;;;;14.90;68.00;;;10.36;100.00;95776.97;5012899;28;19913;-48
2022/11/01 04:05:25;;;;;;;;;;;14.90;67.90;;;10.36;100.00;95784.97;4979025;28;19952;-51
2022/11/01 04:07:51;;;;;;;;;;;14.90;68.00;;;10.36;100.00;95781.50;5012733;28;20383;-51
2022/11/01 04:10:23;;;;;;;;;;;14.90;67.90;;;10.36;100.00;95774.31;5006707;28;19909;-49
2022/11/01 04:12:51;;;;;;;;;;;14.90;67.90;;;10.37;100.00;95775.13;5031886;28;19913;-49
2022/11/01 04:21:26;;;;;;;;;;;14.80;67.80;;;10.29;100.00;95791.59;5016119;28;19990;-50
2022/11/01 04:23:58;;;;;;;;;;;14.80;67.90;;;10.27;100.00;95791.84;5014771;28;20263;-52
2022/11/01 04:26:27;;;;;;;;;;;14.80;67.90;;;10.30;100.00;95801.19;5014312;28;19975;-48
2022/11/01 04:28:58;;;;;;;;;;;14.80;68.00;;;10.27;100.00;95802.47;5021558;28;19912;-50
2022/11/01 04:31:49;;;;;;;;;;;14.70;68.00;;;10.29;100.00;95816.34;5032197;28;19909;-51
2022/11/01 04:34:40;;;;;;;;;;;14.70;68.10;;;10.30;100.00;95823.28;5030085;28;19913;-50
2022/11/01 04:37:00;;;;;;;;;;;14.70;68.10;;;10.31;100.00;95827.56;5025394;28;20312;-49
2022/11/01 04:39:29;;;;;;;;;;;14.70;68.20;;;10.36;100.00;95829.44;5021453;28;19936;-48
2022/11/01 04:41:54;;;;;;;;;;;14.80;68.30;;;10.38;100.00;95825.47;5032174;28;20026;-48
2022/11/01 04:44:20;;;;;;;;;;;14.80;68.30;;;10.39;100.00;95827.06;5013213;28;19909;-50
2022/11/01 04:46:46;;;;;;;;;;;14.80;68.30;;;10.37;100.00;95823.88;5030598;28;20011;-48
2022/11/01 04:49:11;;;;;;;;;;;14.80;68.30;;;10.38;100.00;95817.47;5031568;28;20398;-52
2022/11/01 04:51:43;;;;;;;;;;;14.80;68.30;;;10.38;100.00;95824.66;5030159;28;20367;-48
2022/11/01 04:54:14;;;;;;;;;;;14.80;68.30;;;10.39;100.00;95826.25;5014897;28;19959;-48
2022/11/01 04:56:39;;;;;;;;;;;14.80;68.30;;;10.41;100.00;95824.16;5011569;28;20330;-50
2022/11/01 04:59:07;;;;;;;;;;;14.80;68.30;;;10.47;100.00;95817.00;5012910;28;19958;-48
2022/11/01 05:01:33;;;;;;;;;;;14.80;68.50;;;10.63;100.00;95824.81;5011051;28;20287;-49
2022/11/01 05:03:59;;;;;;;;;;;14.90;68.90;;;10.79;100.00;95820.34;5016337;28;19931;-47
2022/11/01 05:06:28;;;;;;;;;;;15.00;69.40;;;10.99;100.00;95824.16;4994314;28;19909;-48
2022/11/01 05:08:57;;;;;;;;;;;15.10;69.80;;;11.10;100.00;95836.47;5012291;28;19920;-48
2022/11/01 05:11:24;;;;;;;;;;;15.20;70.00;;;11.17;100.00;95842.34;5019738;28;19917;-48
2022/11/01 05:13:51;;;;;;;;;;;15.30;70.00;;;11.22;100.00;95850.38;5010693;28;19917;-51
2022/11/01 05:16:16;;;;;;;;;;;15.40;70.10;;;11.23;100.00;95846.66;5005030;28;20420;-52
2022/11/01 05:18:45;;;;;;;;;;;15.50;69.90;;;11.32;100.00;95852.28;5013373;28;19917;-48
2022/11/01 05:21:11;;;;;;;;;;;15.50;69.90;;;11.39;100.00;95868.03;5029778;28;19913;-49
2022/11/01 05:23:39;;;;;;;;;;;15.60;69.80;;;11.44;100.00;95862.69;5011910;28;20295;-53
2022/11/01 05:26:11;;;;;;;;;;;15.60;69.60;;;11.48;100.00;95872.59;5011384;28;19917;-52
2022/11/01 05:28:46;;;;;;;;;;;15.70;70.30;;;11.48;100.00;95869.94;5025135;28;20011;-50
2022/11/01 05:31:21;;;;;;;;;;;15.70;69.30;;;11.50;100.00;95873.16;5012983;28;19913;-51
2022/11/01 05:33:47;;;;;;;;;;;15.80;69.30;;;11.53;100.00;95877.97;5037458;28;19985;-51
2022/11/01 05:36:13;;;;;;;;;;;15.80;69.20;;;11.58;100.00;95880.63;5004520;28;19913;-51
2022/11/01 05:38:45;;;;;;;;;;;15.80;69.20;;;11.63;100.00;95882.50;5012794;28;19908;-49
2022/11/01 05:41:10;;;;;;;;;;;15.90;69.30;;;11.65;100.00;95885.69;4998956;28;19930;-54
2022/11/01 05:43:36;;;;;;;;;;;15.90;69.10;;;11.67;100.00;95894.25;5025674;28;20445;-50
2022/11/01 05:46:09;;;;;;;;;;;16.00;69.20;;;11.71;100.00;95899.84;5022251;28;20291;-49
2022/11/01 05:48:34;;;;;;;;;;;16.00;69.20;;;11.74;100.00;95897.47;5012705;28;19916;-50
2022/11/01 05:51:00;;;;;;;;;;;16.00;69.10;;;11.76;100.00;95906.00;5011648;28;20287;-52
2022/11/01 05:53:38;;;;;;;;;;;16.00;69.00;;;11.75;100.00;95917.75;5030123;28;19909;-48
2022/11/01 05:56:07;;;;;;;;;;;16.00;68.90;;;11.78;100.00;95919.91;5012481;28;19917;-49
2022/11/01 05:58:36;;;;;;;;;;;16.10;68.90;;;11.82;100.00;95920.19;5029227;28;19932;-48
2022/11/01 06:01:07;;;;;;;;;;;16.10;68.90;;;11.84;100.00;95923.38;5030414;28;19913;-48
2022/11/01 06:03:33;;;;;;;;;;;16.10;68.90;;;11.87;100.00;95922.06;4994788;28;19909;-48
2022/11/01 06:05:59;;;;;;;;;;;16.10;68.70;;;11.90;100.00;95924.22;5029151;28;19951;-50
2022/11/01 06:08:26;;;;;;;;;;;16.20;68.70;;;11.88;100.00;95929.84;5017364;28;19909;-50
2022/11/01 06:11:08;;;;;;;;;;;16.20;68.70;;;11.93;100.00;95929.81;4989435;28;20407;-48
2022/11/01 06:13:40;;;;;;;;;;;16.20;68.60;;;11.94;100.00;95925.28;5000000;28;20177;-48
2022/11/01 06:16:06;;;;;;;;;;;16.20;68.50;;;11.95;100.00;95925.03;4967868;28;19975;-49
2022/11/01 06:18:32;;;;;;;;;;;16.20;68.40;;;11.95;100.00;95934.91;4986268;28;20008;-48
2022/11/01 06:21:07;;;;;;;;;;;16.30;68.40;;;11.89;100.00;95939.44;4990016;28;20372;-49
2022/11/01 06:23:37;;;;;;;;;;;16.30;68.20;;;11.89;100.00;95935.97;4980609;28;19956;-48
2022/11/01 06:26:04;;;;;;;;;;;16.30;68.10;;;11.85;100.00;95943.69;5003617;28;20418;-49
2022/11/01 06:28:33;;;;;;;;;;;16.30;68.10;;;11.80;100.00;95944.44;4988573;28;19925;-48
2022/11/01 06:31:01;;;;;;;;;;;16.30;68.00;;;11.78;100.00;95945.78;4993123;28;20065;-48
2022/11/01 06:33:29;;;;;;;;;;;16.30;68.00;;;11.76;100.00;95948.72;4974102;28;20391;-51
2022/11/01 06:35:57;;;;;;;;;;;16.30;67.80;;;11.73;100.00;95945.78;4973794;28;19921;-49
2022/11/01 06:38:23;;;;;;;;;;;16.30;67.80;;;11.67;100.00;95944.94;4957822;28;19964;-50
2022/11/01 06:40:52;;;;;;;;;;;16.20;67.70;;;11.64;100.00;95953.47;4976196;28;19913;-51
2022/11/01 06:43:17;;;;;;;;;;;16.20;67.80;;;11.67;100.00;95960.97;4963118;28;19913;-49
2022/11/01 06:45:43;;;;;;;;;;;16.20;67.80;;;11.68;100.00;95956.41;4992790;28;20422;-53
2022/11/01 06:48:09;;;;;;;;;;;16.20;67.80;;;11.67;100.00;95955.63;4993108;28;19909;-49
2022/11/01 06:50:35;;;;;;;;;;;16.20;67.90;;;11.72;100.00;95957.50;4981663;28;19910;-49
2022/11/01 06:53:04;;;;;;;;;;;16.20;67.90;;;11.77;100.00;95969.00;4989624;28;19909;-48
2022/11/01 06:55:30;;;;;;;;;;;16.20;67.90;;;11.75;100.00;95967.66;4993783;28;19995;-48
2022/11/01 06:58:02;;;;;;;;;;;16.30;68.00;;;11.79;100.00;95980.22;4992665;28;19975;-50
2022/11/01 07:00:29;;;;;;;;;;;16.30;68.00;;;11.87;100.00;95980.78;4976736;28;19909;-51
2022/11/01 07:03:05;;;;;;;;;;;16.30;68.00;;;12.01;100.00;95984.59;4990900;28;19924;-50
2022/11/01 07:05:36;;;;;;;;;;;16.40;68.10;;;12.08;100.00;95992.34;4992699;28;19913;-49
2022/11/01 07:08:05;;;;;;;;;;;16.40;68.00;;;12.11;100.00;95991.81;4992208;28;20020;-51
2022/11/01 07:10:31;;;;;;;;;;;16.40;67.90;;;12.12;99.45;95991.53;4988258;28;19921;-50
2022/11/01 07:13:02;;;;;;;;;;;16.40;67.80;;;12.15;100.00;95990.22;4987921;28;19909;-51
2022/11/01 07:15:29;;;;;;;;;;;16.40;67.80;;;12.15;100.00;95998.22;4983041;28;20083;-49
2022/11/01 07:18:00;;;;;;;;;;;16.50;67.90;;;12.22;100.00;96001.44;4985734;28;19913;-48
2022/11/01 07:20:33;;;;;;;;;;;16.50;67.80;;;12.29;100.00;95991.31;4988126;28;19913;-53
2022/11/01 07:23:04;;;;;;;;;;;16.60;67.80;;;12.34;99.84;95991.31;4984596;28;19920;-49
2022/11/01 07:25:32;;;;;;;;;;;16.60;67.50;;;12.38;100.00;95981.72;4976785;28;19916;-53
2022/11/01 07:27:58;;;;;;;;;;;16.70;67.50;;;12.45;100.00;95987.59;4968846;28;19914;-50
2022/11/01 07:30:27;;;;;;;;;;;16.80;67.40;;;12.45;98.80;95989.47;4987143;28;19921;-49
2022/11/01 07:32:58;;;;;;;;;;;16.90;67.40;;;12.50;99.08;95997.47;4977032;28;19910;-50
2022/11/01 07:35:30;;;;;;;;;;;17.00;67.40;;;12.56;99.46;95993.72;5005444;28;19913;-49
2022/11/01 07:38:00;;;;;;;;;;;17.10;67.30;;;12.65;99.00;96000.16;4990515;28;20337;-48
2022/11/01 07:40:27;;;;;;;;;;;17.10;67.20;;;12.65;98.30;96000.16;4977599;28;20335;-48
2022/11/01 07:43:00;;;;;;;;;;;17.20;67.20;;;12.71;97.56;95998.28;4989265;28;20004;-48
2022/11/01 07:45:30;;;;;;;;;;;17.20;67.00;;;12.76;96.82;95997.50;4986167;28;19913;-49
2022/11/01 07:48:05;;;;;;;;;;;17.30;66.90;;;12.76;95.88;96002.84;4992315;28;20032;-48
2022/11/01 07:50:33;;;;;;;;;;;17.30;66.90;;;12.87;95.79;95999.06;4992204;28;19910;-48
2022/11/01 07:53:17;;;;;;;;;;;17.40;66.90;;;12.92;94.31;95999.88;4987968;28;20300;-48
2022/11/01 07:55:47;;;;;;;;;;;17.40;66.70;;;12.98;93.47;95995.34;4986416;28;19914;-49
2022/11/01 07:58:19;;;;;;;;;;;17.50;66.60;;;13.07;93.15;96000.94;4998174;28;19909;-48
2022/11/01 08:00:47;;;;;;;;;;;17.60;66.50;;;13.14;92.59;95988.88;4992971;28;19913;-48
2022/11/01 08:03:18;;;;;;;;;;;17.70;66.50;;;13.18;91.57;95989.94;5002605;28;19918;-48
2022/11/01 08:05:46;;;;;;;;;;;17.70;66.30;;;13.25;92.76;95989.69;4993221;28;19979;-48
2022/11/01 08:08:14;;;;;;;;;;;17.80;66.20;;;13.34;92.44;95987.25;4992595;28;20007;-48
2022/11/01 08:10:41;;;;;;;;;;;17.90;66.10;;;13.40;92.79;95984.28;4991783;28;19909;-49
2022/11/01 08:13:20;;;;;;;;;;;18.00;66.00;;;13.46;92.83;95992.31;4991740;28;19909;-50
2022/11/01 08:16:02;;;;;;;;;;;18.10;66.00;;;13.50;92.53;95986.13;5006254;28;20233;-50
2022/11/01 08:18:28;;;;;;;;;;;18.20;65.80;;;13.57;93.82;95989.34;4975347;28;20277;-51
2022/11/01 08:20:54;;;;;;;;;;;18.20;65.60;;;13.60;92.60;95980.75;4972836;28;19920;-50
2022/11/01 08:23:20;;;;;;;;;;;18.30;65.50;;;13.54;93.36;95986.41;4975426;28;19910;-48
2022/11/01 08:25:46;;;;;;;;;;;18.40;65.40;;;13.60;93.72;95987.97;4973397;28;20261;-49
2022/11/01 08:28:18;;;;;;;;;;;18.50;65.30;;;13.60;90.33;95993.31;4978017;28;19918;-49
2022/11/01 08:30:49;;;;;;;;;;;18.60;65.10;;;13.70;93.94;95995.97;4970932;28;19909;-49
2022/11/01 08:33:18;;;;;;;;;;;18.60;65.00;;;13.75;92.85;96000.50;4990139;28;19909;-49
2022/11/01 08:35:44;;;;;;;;;;;18.70;64.90;;;13.84;93.80;96005.00;4976247;28;19914;-49
2022/11/01 08:38:17;;;;;;;;;;;18.80;64.80;;;13.98;92.69;95993.72;4978809;28;19909;-49
2022/11/01 08:40:55;;;;;;;;;;;18.80;64.70;;;14.05;92.46;96003.03;5001507;28;19996;-49
2022/11/01 08:43:27;;;;;;;;;;;19.00;64.70;;;13.91;87.59;96012.75;4992222;28;20291;-50
2022/11/01 08:45:53;;;;;;;;;;;19.00;64.50;;;14.02;88.67;96008.16;4985029;28;20357;-48
2022/11/01 08:48:24;;;;;;;;;;;19.10;64.30;;;14.05;87.56;96007.59;4972391;28;19913;-48
2022/11/01 08:50:50;;;;;;;;;;;19.20;64.00;;;14.12;86.44;96013.44;4971860;28;19916;-53
2022/11/01 08:53:23;;;;;;;;;;;19.30;63.80;;;14.22;86.56;96007.22;4986689;28;19910;-48
2022/11/01 08:55:55;;;;;;;;;;;19.30;63.60;;;14.35;86.87;96014.66;4972815;28;19914;-49
2022/11/01 08:58:21;;;;;;;;;;;19.30;63.50;;;14.43;84.74;96010.59;4954769;28;19928;-51
2022/11/01 09:00:46;;;;;;;;;;;19.40;63.50;;;14.47;85.57;96007.06;4971338;28;20357;-49
2022/11/01 09:03:13;;;;;;;;;;;19.40;63.30;;;14.48;84.69;96005.22;4973845;28;20378;-49
2022/11/01 09:05:39;;;;;;;;;;;19.50;63.20;;;14.46;84.37;96013.50;4983279;28;19910;-49
2022/11/01 09:08:08;;;;;;;;;;;19.50;62.90;;;14.47;84.29;96017.78;4985598;28;19920;-49
2022/11/01 09:10:39;;;;;;;;;;;19.60;62.80;;;14.53;84.34;96011.34;4986385;28;19910;-49
2022/11/01 09:13:11;;;;;;;;;;;19.60;62.70;;;14.61;84.02;96017.22;4972337;28;19910;-49
2022/11/01 09:15:46;;;;;;;;;;;19.60;62.50;;;14.61;83.12;96007.28;5022949;23;19927;-51
2022/11/01 09:18:19;;;;;;;;;;;19.70;62.50;;;14.62;82.72;96011.56;5030917;28;19913;-51
2022/11/01 09:20:55;;;;;;;;;;;19.70;62.20;;;14.55;83.16;96019.91;5011226;28;19919;-51
2022/11/01 09:23:21;;;;;;;;;;;19.80;62.00;;;14.46;82.50;96004.69;5013082;28;19943;-55
2022/11/01 09:25:47;;;;;;;;;;;19.80;61.60;;;14.56;83.80;96002.75;4996651;28;20496;-54
2022/11/01 09:28:13;;;;;;;;;;;19.80;61.40;;;14.55;83.13;96013.75;5018487;28;19955;-52
2022/11/01 09:30:40;;;;;;;;;;;19.80;61.20;;;14.65;83.85;96018.25;4977322;28;20003;-53
2022/11/01 09:33:06;;;;;;;;;;;19.80;61.10;;;14.55;82.37;96024.47;5001083;28;19910;-57
2022/11/01 09:35:33;;;;;;;;;;;19.80;60.90;;;14.58;82.40;96019.38;5009361;28;20379;-57
2022/11/01 09:38:03;;;;;;;;;;;19.90;60.80;;;14.61;82.83;96017.22;5011056;28;19967;-54
2022/11/01 09:40:44;;;;;;;;;;;19.90;60.70;;;14.63;82.17;96017.72;5009770;28;19909;-56
2022/11/01 09:43:22;;;;;;;;;;;19.90;60.60;;;14.68;82.46;96017.69;4993435;28;20294;-57
2022/11/01 09:45:52;;;;;;;;;;;19.90;60.50;;;14.66;81.18;96019.84;4996325;28;20401;-56
2022/11/01 09:48:19;;;;;;;;;;;19.90;60.20;;;14.72;81.28;96016.84;5011790;28;19924;-57
2022/11/01 09:50:52;;;;;;;;;;;19.90;60.00;;;14.72;80.26;96018.72;5011840;28;20058;-52
2022/11/01 09:53:26;;;;;;;;;;;19.90;59.80;;;14.81;81.50;96025.88;5010548;28;19913;-52
2022/11/01 09:56:11;;;;;;;;;;;20.00;59.80;;;14.88;80.33;96022.88;4976775;28;19924;-53
2022/11/01 09:59:12;;;;;;;;;;;20.00;59.80;;;14.97;79.75;96015.81;5002328;28;19909;-57
2022/11/01 10:02:18;;;;;;;;;;;20.10;59.70;;;15.10;80.15;96032.34;5010933;28;19948;-52
2022/11/01 10:05:22;;;;;;;;;;;20.20;59.60;;;15.19;79.83;96036.03;4989254;28;20260;-52
2022/11/01 10:08:10;;;;;;;;;;;20.20;59.60;;;15.31;78.36;96041.03;5010391;28;19913;-54
2022/11/01 10:10:51;;;;;;;;;;;20.30;59.50;;;15.40;77.34;96044.69;5016715;28;19943;-52
2022/11/01 10:14:24;;;;;;;;;;;20.50;59.50;;;15.46;76.78;96038.19;5030198;28;19919;-55
2022/11/01 10:17:29;;;;;;;;;;;20.70;59.20;;;15.51;76.86;96038.13;4918368;29;20377;-55
2022/11/01 10:19:55;;;;;;;;;;;20.90;58.80;;;15.73;76.18;96040.34;4952136;28;19909;-54
2022/11/01 10:22:35;;;;;;;;;;;21.10;58.60;;;15.91;76.38;96049.53;4969173;28;19909;-51
2022/11/01 10:25:13;;;;;;;;;;;21.30;58.40;;;16.00;76.35;96052.41;4972209;28;19913;-53
2022/11/01 10:28:20;;;;;;;;;;;21.40;58.30;;;16.14;73.61;96046.03;4997312;28;20368;-51
2022/11/01 10:31:04;;;;;;;;;;;21.60;58.10;;;16.20;74.25;96052.13;4991271;28;19924;-57
2022/11/01 10:33:56;;;;;;;;;;;21.80;58.00;;;16.19;73.77;96050.53;4964563;28;19921;-51
2022/11/01 10:36:33;;;;;;;;;;;21.90;57.60;;;16.32;73.78;96051.72;5000938;28;20004;-57
2022/11/01 10:39:41;;;;;;;;;;;22.00;57.40;;;16.42;72.72;96048.88;4988826;28;19920;-53
2022/11/01 10:42:16;;;;;;;;;;;22.10;57.10;;;16.39;71.84;96054.88;4983752;28;19909;-56
2022/11/01 10:44:54;;;;;;;;;;;22.30;56.80;;;16.46;73.34;96051.81;4988827;28;19910;-57
2022/11/01 10:47:23;;;;;;;;;;;22.50;56.50;;;16.66;71.43;96054.19;4985026;28;19924;-56
2022/11/01 10:50:05;;;;;;;;;;;22.70;56.20;;;16.65;71.53;96048.03;4984512;28;19951;-55
2022/11/01 10:52:51;;;;;;;;;;;22.80;55.80;;;16.78;71.08;96046.50;4984824;28;19917;-53
2022/11/01 10:55:51;;;;;;;;;;;22.90;55.60;;;16.63;70.90;96044.03;4999052;28;20432;-56
2022/11/01 10:58:55;;;;;;;;;;;22.90;55.30;;;16.62;71.54;96043.22;4978999;28;19914;-56
2022/11/01 11:01:37;;;;;;;;;;;22.90;55.00;;;16.50;70.21;96031.31;4974496;28;20373;-56
2022/11/01 11:04:10;;;;;;;;;;;22.80;54.80;;;16.54;71.78;96038.50;4987400;28;19910;-54
2022/11/01 11:06:42;;;;;;;;;;;22.80;54.50;;;16.69;70.66;96029.41;5003057;28;19909;-53
2022/11/01 11:09:33;;;;;;;;;;;22.90;54.60;;;16.66;70.03;96025.41;4989131;28;19909;-56
2022/11/01 11:12:18;;;;;;;;;;;22.90;54.40;;;16.63;71.35;96038.63;5007791;28;19909;-55
2022/11/01 11:14:56;;;;;;;;;;;22.80;54.30;;;16.81;71.73;96034.38;5005077;28;19917;-54
2022/11/01 11:17:42;;;;;;;;;;;22.90;54.30;;;16.87;70.70;96044.75;4985111;28;19923;-57
2022/11/01 11:20:19;;;;;;;;;;;22.90;54.30;;;16.83;70.66;96035.69;5033415;28;20354;-56
2022/11/01 11:22:46;;;;;;;;;;;22.90;54.30;;;16.83;70.27;96034.91;5004342;28;19909;-56
2022/11/01 11:25:34;;;;;;;;;;;22.90;54.20;;;16.82;70.99;96039.44;5015066;28;19995;-53
2022/11/01 11:28:00;;;;;;;;;;;22.90;54.10;;;16.79;70.12;96036.53;5018326;28;19952;-56
2022/11/01 11:30:34;;;;;;;;;;;22.90;54.00;;;16.84;70.75;96041.84;4999151;28;19962;-56
2022/11/01 11:33:04;;;;;;;;;;;22.80;54.00;;;16.87;71.33;96035.91;5029592;28;20003;-56
2022/11/01 11:35:32;;;;;;;;;;;22.80;54.10;;;16.81;70.55;96042.44;4995138;28;20389;-54
2022/11/01 11:38:03;;;;;;;;;;;22.80;54.20;;;16.79;71.39;96040.03;5026705;28;19951;-54
2022/11/01 11:40:44;;;;;;;;;;;22.80;54.10;;;16.69;70.00;96028.63;5025635;28;19908;-56
2022/11/01 11:43:34;;;;;;;;;;;22.70;53.90;;;16.76;70.46;96035.22;4998969;28;19943;-56
2022/11/01 11:46:09;;;;;;;;;;;22.70;54.00;;;16.80;69.95;96032.78;5005494;28;20006;-56
2022/11/01 11:48:55;;;;;;;;;;;22.60;54.00;;;16.88;69.62;96029.41;5011871;28;19909;-56
2022/11/01 11:51:24;;;;;;;;;;;22.60;54.10;;;16.93;69.87;96031.22;5010619;28;19978;-53
2022/11/01 11:54:36;;;;;;;;;;;22.50;54.10;;;16.94;69.64;96038.22;5009203;28;20011;-56
2022/11/01 11:57:20;;;;;;;;;;;22.50;54.20;;;16.80;68.94;96028.19;5020166;28;19928;-55